Relevés horaires Laegern (Suisse)


Relevés horaires à Laegern - Dimanche 05 Avr. 2026
Heure UTC1 Température [°C] Vent [km/h] Hum. [%] Pres.4 [hPa] Visi. [Km] Nébu. [octa] Préc.5 [mm] Cond.
2m. Res. Ros. Dir.2 Vit. Moy. Raf.3
23:00 9.8 7.3 4.6 ONO 18.5 -- 42.6 70 850(2.0/3h) -- -- -- --
22:00 10.8 7.6 3.4 O 29.6 -- 48.2 60 850(1.3/3h) -- -- -- --
21:00 12.0 9.7 2.5 ONO 22.2 -- 42.6 52 850(1.1/3h) -- -- -- --
20:00 13.9 12.3 2.5 ONO 20.4 -- 35.2 46 850(1.1/3h) -- -- -- --
19:00 15.0 13.8 3.0 O 18.5 -- 33.3 44 850(0.8/3h) -- -- -- --
18:00 15.0 14.3 4.1 OSO 13.0 -- 44.4 48 850(0.6/3h) -- -- -- --
17:00 15.6 14.2 3.6 ONO 24.1 -- 44.4 45 850(0.1/3h) -- -- -- --
16:00 16.9 16.6 3.1 ONO 13.0 -- 33.3 40 850(-0.6/3h) -- -- -- --
15:00 18.1 18.1 1.8 O 11.1 -- 40.7 33 850(-0.7/3h) -- -- -- --
14:00 18.1 17.8 5.1 SSO 16.7 -- 31.5 42 850(-0.6/3h) -- -- -- --
13:00 17.5 16.8 5.9 SSO 20.4 -- 37.0 46 850(-0.3/3h) -- -- -- --
12:00 17.0 16.2 5.4 SSO 20.4 -- 51.9 46 850(0.0/3h) -- -- -- --
11:00 15.4 13.8 5.0 SO 25.9 -- 46.3 50 850(0.4/3h) -- -- -- --
10:00 13.8 11.8 5.1 SSO 25.9 -- 44.4 56 850(0.9/3h) -- -- -- --
09:00 11.2 7.9 5.0 SSO 33.3 -- 51.9 66 850(1.1/3h) -- -- -- --
08:00 10.0 6.5 4.5 SSO 31.5 -- 50.0 69 850(1.1/3h) -- -- -- --
07:00 9.3 5.3 4.3 SSO 35.2 -- 48.2 71 850(0.8/3h) -- -- -- --
06:00 9.0 5 4.3 SSO 33.3 -- 46.3 72 850(0.0/3h) -- -- -- --
05:00 8.9 5 4.5 SSO 31.5 -- 40.7 74 850(-0.4/3h) -- -- -- --
04:00 9.0 5 4.8 SSO 33.3 -- 40.7 75 850(-0.7/3h) -- -- -- --
03:00 8.7 4.9 5.2 SSO 29.6 -- 38.9 79 850(-0.6/3h) -- -- -- --
02:00 9.4 6.4 4.5 S 22.2 -- 29.6 71 850(-0.7/3h) -- -- -- --
01:00 10.0 7.2 5.3 S 22.2 -- 25.9 73 850(-0.7/3h) -- -- -- --
00:00 10.3 7.9 5.5 S 18.5 -- 24.1 72 850(-0.6/3h) -- -- -- --

1 Coordinated Universal Time. Actuellement il est 05:00 locale et 03:00 UTC.

2 Le vent souffle depuis la direction indiquée vers la direction oposée.

3 Les rafales max. sont disponible 40 min après l'heure du relevé.

4 Pour les stations d'altitude (plus de 600m) le géopotentiel du niveau le plus proche de la pression obligatoire est indiqué.

5 Les stations disposant d'un diffuseur peuvent indiquer "trace". Cela signifie que des précipitations ont touchés le sol mais que la quantité est inférieure à 0.1 mm.

Copyright

Les données affichées sur cette page sont la propriété exclusive de Météo Suisse.

Récapitulatif de la journée
Température [°C] Vent [km/h] Ensoleillement4 [h] Precipitations totale5 [mm] Pression [Hpa]
Min1 Max.2 Moy.3 Max. Min Max.
8.6 19.0 0 51.9 8 h 18 min 0 850.0 850.0

1 Température minimale relevée entre 18:00 UTC la veille et 18:00 UTC le jour donné.

2 Température maximale relevée entre 06:00 UTC le jour donné et 06:00 UTC le lendemain.

3 Vent moyen de la journée basé sur les relevés horaires.

4 Ensoleillement en heures relevé entre 06:00 UTC la veille et 06:00 UTC le jour donné.

5 Précipitations totales tombées entre 06:00 UTC la jour donné et 06:00 UTC le lendemain.

Graphiques horaires